Time;durP1;ratioP1;P1;durP2;ratioP2;P2;SDS_P1;SDS_P2;PMS_P1;PMS_P2;Temp;Humidity;BMP_temperature;BMP_pressure;BME280_temperature;BME280_humidity;BME280_pressure;Samples;Min_cycle;Max_cycle;Signal;HPM_P1;HPM_P2
2022/05/24 00:01:39;;;;;;;3.97;2.13;;;;;;;16.84;100.00;95319.25;5065346;28;20220;-85
2022/05/24 00:04:06;;;;;;;4.10;2.03;;;;;;;16.84;100.00;95305.63;5065656;28;20263;-86
2022/05/24 00:06:34;;;;;;;4.73;2.70;;;;;;;16.90;100.00;95316.16;5064551;28;20278;-87
2022/05/24 00:09:01;;;;;;;2.63;2.40;;;;;;;16.81;100.00;95308.94;5060655;28;20319;-85
2022/05/24 00:11:28;;;;;;;4.20;2.50;;;;;;;16.78;100.00;95309.50;5061733;28;20214;-85
2022/05/24 00:14:00;;;;;;;5.33;2.70;;;;;;;16.78;100.00;95301.34;5068919;28;20279;-86
2022/05/24 00:16:28;;;;;;;3.10;2.40;;;;;;;16.87;100.00;95313.19;5064912;28;20229;-86
2022/05/24 00:18:55;;;;;;;5.63;2.30;;;;;;;16.92;100.00;95308.50;5064646;28;20212;-86
2022/05/24 00:21:22;;;;;;;5.07;2.20;;;;;;;16.96;100.00;95297.78;5063222;28;20202;-86
2022/05/24 00:23:49;;;;;;;5.97;1.90;;;;;;;16.93;100.00;95301.09;5073636;28;20211;-87
2022/05/24 00:26:22;;;;;;;5.23;1.90;;;;;;;17.01;100.00;95317.59;5060551;28;20294;-86
2022/05/24 00:28:49;;;;;;;3.57;2.10;;;;;;;17.07;100.00;95309.38;5064965;28;20271;-86
2022/05/24 00:31:18;;;;;;;3.80;2.40;;;;;;;17.09;100.00;95318.06;5064700;28;20276;-86
2022/05/24 00:33:45;;;;;;;4.93;2.63;;;;;;;17.07;100.00;95310.19;5069567;28;20270;-85
2022/05/24 00:36:12;;;;;;;7.27;2.80;;;;;;;17.07;100.00;95303.91;5066912;28;20208;-85
2022/05/24 00:38:39;;;;;;;3.20;2.50;;;;;;;17.08;100.00;95311.00;5071412;28;20221;-86
2022/05/24 00:41:22;;;;;;;4.10;2.60;;;;;;;16.99;100.00;95313.56;5067687;28;20209;-86
2022/05/24 00:43:54;;;;;;;4.40;2.80;;;;;;;16.91;100.00;95298.69;5062244;28;20238;-86
2022/05/24 00:46:26;;;;;;;4.20;2.53;;;;;;;16.85;100.00;95307.22;5067660;28;20286;-87
2022/05/24 00:48:57;;;;;;;4.40;2.50;;;;;;;16.88;100.00;95315.63;5059265;28;20240;-86
2022/05/24 00:51:31;;;;;;;4.27;2.53;;;;;;;16.81;100.00;95306.22;5062576;28;20237;-86
2022/05/24 00:53:58;;;;;;;5.47;2.30;;;;;;;16.81;100.00;95301.56;5064466;28;20210;-87
2022/05/24 00:56:47;;;;;;;5.17;2.20;;;;;;;16.74;100.00;95300.31;5060727;28;20210;-88
2022/05/24 00:59:23;;;;;;;3.47;2.10;;;;;;;16.73;100.00;95302.22;5062224;28;20280;-87
2022/05/24 01:01:52;;;;;;;4.83;2.10;;;;;;;16.75;100.00;95299.22;5066282;28;20207;-87
2022/05/24 01:04:20;;;;;;;4.00;2.20;;;;;;;16.72;100.00;95297.06;5061783;28;20224;-86
2022/05/24 01:06:48;;;;;;;2.97;2.17;;;;;;;16.73;100.00;95299.50;5058558;28;20197;-87
2022/05/24 01:09:21;;;;;;;3.70;2.30;;;;;;;16.71;100.00;95290.81;5065141;28;20255;-85
2022/05/24 01:11:52;;;;;;;3.67;1.97;;;;;;;16.78;100.00;95295.88;5070725;28;20206;-87
2022/05/24 01:14:23;;;;;;;4.00;2.00;;;;;;;16.79;100.00;95281.97;5062963;28;20278;-86
2022/05/24 01:16:54;;;;;;;3.47;2.13;;;;;;;16.80;100.00;95299.13;5075300;28;20230;-86
2022/05/24 01:19:32;;;;;;;4.67;1.90;;;;;;;16.79;100.00;95287.41;5062868;28;20213;-87
2022/05/24 01:22:09;;;;;;;2.63;1.73;;;;;;;16.77;100.00;95294.25;5070803;28;20221;-86
2022/05/24 01:24:45;;;;;;;2.70;2.00;;;;;;;16.78;100.00;95290.44;5071592;28;20214;-86
2022/05/24 01:27:14;;;;;;;2.37;2.07;;;;;;;16.78;100.00;95290.44;5064832;28;20272;-85
2022/05/24 01:29:41;;;;;;;3.40;2.20;;;;;;;16.76;100.00;95287.22;5058922;28;20290;-86
2022/05/24 01:37:40;;;;;;;5.10;2.20;;;;;;;16.77;100.00;95288.81;5049439;28;20204;-87
2022/05/24 01:40:08;;;;;;;2.60;2.00;;;;;;;16.78;100.00;95279.53;5066770;28;20202;-87
2022/05/24 01:42:38;;;;;;;5.23;2.50;;;;;;;16.83;100.00;95283.00;5068985;28;20252;-86
2022/05/24 01:45:11;;;;;;;3.93;2.57;;;;;;;16.82;100.00;95280.56;5055780;28;20234;-87
2022/05/24 01:47:42;;;;;;;2.60;2.20;;;;;;;16.80;100.00;95277.31;5063310;28;20220;-85
2022/05/24 01:50:14;;;;;;;3.23;2.43;;;;;;;16.79;100.00;95267.53;5065707;28;20216;-86
2022/05/24 01:52:46;;;;;;;3.40;2.50;;;;;;;16.77;100.00;95261.53;5064691;28;20201;-88
2022/05/24 01:55:16;;;;;;;4.27;2.33;;;;;;;16.78;100.00;95261.25;5063778;28;20287;-86
2022/05/24 01:57:49;;;;;;;2.50;2.20;;;;;;;16.83;100.00;95269.38;5061589;28;20213;-87
2022/05/24 02:00:17;;;;;;;2.47;2.17;;;;;;;16.83;100.00;95255.75;5061877;28;20199;-87
2022/05/24 02:02:46;;;;;;;4.67;2.00;;;;;;;16.77;100.00;95258.81;5058032;28;20229;-86
2022/05/24 02:05:15;;;;;;;4.13;2.17;;;;;;;16.70;100.00;95266.56;5057180;28;20268;-85
2022/05/24 02:07:42;;;;;;;3.00;2.03;;;;;;;16.64;100.00;95258.47;5057423;28;20217;-85
2022/05/24 02:10:10;;;;;;;3.53;2.13;;;;;;;16.61;100.00;95256.31;5064778;28;20234;-85
2022/05/24 02:12:41;;;;;;;3.50;1.97;;;;;;;16.61;100.00;95248.16;5076707;28;20242;-86
2022/05/24 02:15:14;;;;;;;2.70;2.20;;;;;;;16.69;100.00;95254.84;5083186;28;20216;-85
2022/05/24 02:17:46;;;;;;;4.13;2.07;;;;;;;16.68;100.00;95260.59;5063627;28;20210;-87
2022/05/24 02:20:16;;;;;;;4.10;2.17;;;;;;;16.66;100.00;95265.53;5066090;28;20256;-85
2022/05/24 02:22:45;;;;;;;4.27;1.80;;;;;;;16.68;100.00;95261.41;5062089;28;20297;-86
2022/05/24 02:25:18;;;;;;;3.93;1.90;;;;;;;16.73;100.00;95260.53;5062169;28;20207;-86
2022/05/24 02:27:46;;;;;;;2.10;1.73;;;;;;;16.67;100.00;95257.09;5064229;28;20209;-85
2022/05/24 02:30:22;;;;;;;2.10;1.60;;;;;;;16.65;100.00;95259.28;5064019;28;20217;-87
2022/05/24 02:32:50;;;;;;;3.37;1.93;;;;;;;16.64;100.00;95263.91;5081974;28;20210;-87
2022/05/24 02:35:18;;;;;;;5.23;1.90;;;;;;;16.60;100.00;95257.41;5072206;28;20229;-87
2022/05/24 02:37:45;;;;;;;2.80;2.00;;;;;;;16.60;100.00;95259.31;5066503;28;20206;-85
2022/05/24 02:42:59;;;;;;;2.00;1.80;;;;;;;16.58;100.00;95264.25;5059965;28;20213;-85
2022/05/24 02:45:27;;;;;;;3.20;1.63;;;;;;;16.53;100.00;95261.59;5068372;28;20296;-87
2022/05/24 02:47:55;;;;;;;2.67;1.83;;;;;;;16.60;100.00;95272.94;5071973;28;20200;-85
2022/05/24 02:50:22;;;;;;;2.30;1.40;;;;;;;16.58;100.00;95265.06;5068686;28;20222;-87
2022/05/24 02:52:50;;;;;;;2.40;1.70;;;;;;;16.60;100.00;95265.56;5066616;28;20209;-87
2022/05/24 02:55:20;;;;;;;2.23;1.70;;;;;;;16.61;100.00;95275.41;5059237;28;20234;-86
2022/05/24 02:57:48;;;;;;;2.43;1.57;;;;;;;16.58;100.00;95267.81;5064341;28;20220;-85
2022/05/24 03:00:19;;;;;;;4.07;1.80;;;;;;;16.61;100.00;95274.59;5061998;28;20226;-84
2022/05/24 03:02:49;;;;;;;2.77;2.23;;;;;;;16.56;100.00;95272.72;5066280;28;20212;-85
2022/05/24 03:05:23;;;;;;;2.57;1.70;;;;;;;16.50;100.00;95276.59;5086965;28;20205;-85
2022/05/24 03:10:35;;;;;;;4.13;2.00;;;;;;;16.48;100.00;95280.75;5070433;28;20237;-86
2022/05/24 03:15:48;;;;;;;2.83;2.00;;;;;;;16.56;100.00;95277.38;5063261;28;20312;-85
2022/05/24 03:18:18;;;;;;;3.07;1.80;;;;;;;16.57;100.00;95273.53;5063883;28;20267;-85
2022/05/24 03:20:46;;;;;;;4.50;2.17;;;;;;;16.60;100.00;95290.09;5068518;28;20209;-86
2022/05/24 03:23:14;;;;;;;3.00;1.97;;;;;;;16.53;100.00;95295.09;5061652;28;20206;-85
2022/05/24 03:25:41;;;;;;;3.83;2.27;;;;;;;16.41;100.00;95300.19;5073992;28;20296;-87
2022/05/24 03:28:10;;;;;;;4.53;2.10;;;;;;;16.35;100.00;95301.34;5062875;28;20208;-85
2022/05/24 03:30:41;;;;;;;6.30;3.13;;;;;;;16.40;100.00;95297.75;5077581;28;20237;-86
2022/05/24 03:33:08;;;;;;;2.73;2.07;;;;;;;16.27;100.00;95293.81;5065049;28;20224;-86
2022/05/24 03:35:37;;;;;;;3.90;2.40;;;;;;;16.28;100.00;95293.53;5069999;28;20212;-86
2022/05/24 03:38:04;;;;;;;4.63;2.60;;;;;;;16.25;100.00;95296.00;5067680;28;20210;-86
2022/05/24 03:42:55;;;;;;;3.13;2.00;;;;;;;16.16;100.00;95289.59;5095142;27;20613;-85
2022/05/24 03:45:23;;;;;;;5.57;2.43;;;;;;;16.16;100.00;95284.16;5089922;28;20212;-86
2022/05/24 03:47:50;;;;;;;3.63;2.23;;;;;;;16.15;100.00;95288.78;5092378;28;20203;-85
2022/05/24 03:50:19;;;;;;;4.60;2.67;;;;;;;16.17;100.00;95293.94;5087032;28;20200;-85
2022/05/24 03:52:46;;;;;;;5.73;2.70;;;;;;;16.09;100.00;95286.41;5094412;28;20224;-86
2022/05/24 03:55:14;;;;;;;4.70;2.70;;;;;;;16.13;100.00;95291.00;5091115;28;20223;-85
2022/05/24 04:00:30;;;;;;;8.20;2.50;;;;;;;16.13;100.00;95301.06;5089273;28;20220;-85
2022/05/24 04:02:58;;;;;;;3.57;2.60;;;;;;;16.16;100.00;95301.28;5092864;28;20238;-85
2022/05/24 04:05:25;;;;;;;3.47;3.03;;;;;;;16.17;100.00;95302.09;5095811;28;20223;-86
2022/05/24 04:07:52;;;;;;;5.63;2.70;;;;;;;16.09;100.00;95294.56;5091250;28;20262;-86
2022/05/24 04:10:20;;;;;;;5.03;2.47;;;;;;;16.01;100.00;95301.47;5091265;28;20200;-87
2022/05/24 04:12:48;;;;;;;7.43;3.00;;;;;;;16.06;100.00;95295.97;5098048;28;20203;-85
2022/05/24 04:15:15;;;;;;;3.90;2.40;;;;;;;16.08;100.00;95299.22;5089718;28;20201;-84
2022/05/24 04:17:45;;;;;;;6.20;3.00;;;;;;;16.12;100.00;95302.97;5092855;28;20212;-84
2022/05/24 04:20:12;;;;;;;3.77;2.37;;;;;;;16.06;100.00;95312.31;5100667;28;20311;-85
2022/05/24 04:22:42;;;;;;;4.07;2.33;;;;;;;15.98;100.00;95315.69;5098812;28;20225;-86
2022/05/24 04:25:09;;;;;;;4.73;2.00;;;;;;;15.88;100.00;95321.22;5089000;28;20211;-85
2022/05/24 04:27:37;;;;;;;3.67;2.60;;;;;;;15.91;100.00;95325.28;5093622;28;20227;-86
2022/05/24 04:30:04;;;;;;;3.30;3.00;;;;;;;15.87;100.00;95336.75;5095955;28;20230;-86
2022/05/24 04:32:31;;;;;;;3.73;2.40;;;;;;;15.85;100.00;95338.94;5094579;28;20291;-85
2022/05/24 04:35:00;;;;;;;3.03;2.20;;;;;;;15.89;100.00;95340.00;5087027;28;20255;-86
2022/05/24 04:37:28;;;;;;;2.53;1.80;;;;;;;15.93;100.00;95345.66;5089011;28;20285;-85
2022/05/24 04:39:55;;;;;;;1.93;1.70;;;;;;;15.93;100.00;95355.75;5095903;28;20212;-87
2022/05/24 04:42:24;;;;;;;2.87;2.03;;;;;;;15.92;100.00;95362.28;5100221;28;20228;-85
2022/05/24 04:44:53;;;;;;;2.63;1.80;;;;;;;15.91;100.00;95368.84;5089898;28;20205;-85
2022/05/24 04:47:22;;;;;;;2.60;1.70;;;;;;;15.84;100.00;95364.53;5094107;28;20258;-84
2022/05/24 04:49:54;;;;;;;2.33;1.47;;;;;;;15.86;100.00;95377.88;5090828;28;20216;-87
2022/05/24 04:52:24;;;;;;;1.90;1.60;;;;;;;15.84;100.00;95382.78;5090144;28;20208;-85
2022/05/24 04:54:53;;;;;;;4.90;1.50;;;;;;;15.85;100.00;95389.84;5075339;28;20213;-85
2022/05/24 04:57:20;;;;;;;1.93;1.40;;;;;;;15.81;100.00;95391.53;5078286;28;20212;-87
2022/05/24 04:59:48;;;;;;;2.20;1.60;;;;;;;15.87;100.00;95402.09;5076262;28;20292;-85
2022/05/24 05:02:15;;;;;;;1.30;1.20;;;;;;;15.85;100.00;95398.00;5076419;28;20271;-86
2022/05/24 05:04:42;;;;;;;1.93;1.30;;;;;;;15.84;100.00;95401.81;5080383;28;20216;-86
2022/05/24 05:07:09;;;;;;;1.37;1.20;;;;;;;15.86;100.00;95403.16;5080100;28;20205;-84
2022/05/24 05:09:39;;;;;;;1.70;1.10;;;;;;;15.91;100.00;95404.25;5081418;28;20205;-84
2022/05/24 05:12:09;;;;;;;2.37;1.30;;;;;;;15.81;100.00;95403.22;5074991;28;20217;-84
2022/05/24 05:14:37;;;;;;;1.40;1.30;;;;;;;15.72;100.00;95399.50;5079245;28;20214;-84
2022/05/24 05:17:10;;;;;;;4.27;1.50;;;;;;;15.71;100.00;95403.31;5079492;28;20217;-86
2022/05/24 05:19:37;;;;;;;3.83;1.60;;;;;;;15.73;100.00;95414.75;5073679;28;20272;-85
2022/05/24 05:22:05;;;;;;;1.73;1.23;;;;;;;15.67;100.00;95413.13;5077824;28;20240;-85
2022/05/24 05:24:33;;;;;;;3.70;1.43;;;;;;;15.68;100.00;95412.03;5081534;28;20245;-85
2022/05/24 05:27:02;;;;;;;2.67;1.40;;;;;;;15.68;100.00;95409.31;5071857;28;20286;-84
2022/05/24 05:32:19;;;;;;;1.67;1.40;;;;;;;15.74;100.00;95413.63;5076817;28;20202;-85
2022/05/24 05:34:47;;;;;;;2.53;1.50;;;;;;;15.75;100.00;95414.44;5076520;28;20229;-85
2022/05/24 05:37:15;;;;;;;1.57;1.47;;;;;;;15.69;100.00;95410.94;5083218;28;20263;-86
2022/05/24 05:39:44;;;;;;;4.53;1.90;;;;;;;15.71;100.00;95425.09;5083653;28;20239;-86
2022/05/24 05:44:56;;;;;;;2.83;1.40;;;;;;;15.57;100.00;95413.22;5104070;27;20655;-85
2022/05/24 05:47:23;;;;;;;1.73;1.13;;;;;;;15.61;100.00;95427.88;5071579;28;20208;-85
2022/05/24 05:49:50;;;;;;;2.00;1.40;;;;;;;15.51;100.00;95426.00;5066178;28;20278;-86
2022/05/24 05:52:19;;;;;;;1.80;1.53;;;;;;;15.50;100.00;95435.28;5064882;28;20196;-84
2022/05/24 05:54:46;;;;;;;3.63;1.30;;;;;;;15.54;100.00;95440.19;5056252;28;20221;-84
2022/05/24 05:57:13;;;;;;;6.40;1.60;;;;;;;15.54;100.00;95435.56;5071867;28;20208;-84
2022/05/24 05:59:41;;;;;;;3.20;1.63;;;;;;;15.41;100.00;95438.88;5065291;28;20232;-85
2022/05/24 06:02:10;;;;;;;2.00;1.20;;;;;;;15.42;100.00;95444.03;5064027;28;20205;-85
2022/05/24 06:04:38;;;;;;;2.33;1.20;;;;;;;15.42;100.00;95457.63;5066578;28;20224;-86
2022/05/24 06:07:07;;;;;;;1.73;1.30;;;;;;;15.37;100.00;95462.31;5073604;28;20364;-85
2022/05/24 06:09:34;;;;;;;1.20;1.10;;;;;;;15.43;100.00;95458.44;5065019;28;20205;-87
2022/05/24 06:12:02;;;;;;;1.87;1.40;;;;;;;15.46;100.00;95449.75;5067990;28;20205;-86
2022/05/24 06:14:30;;;;;;;3.53;1.30;;;;;;;15.37;100.00;95454.16;5079992;28;20196;-86
2022/05/24 06:16:57;;;;;;;2.50;1.67;;;;;;;15.32;100.00;95459.59;5044763;28;20233;-86
2022/05/24 06:19:26;;;;;;;2.17;1.17;;;;;;;15.18;100.00;95462.13;5050405;28;20205;-86
2022/05/24 06:21:53;;;;;;;3.93;1.60;;;;;;;15.18;100.00;95458.59;5060866;28;20211;-86
2022/05/24 06:24:20;;;;;;;4.23;1.60;;;;;;;15.10;100.00;95458.09;5048201;28;20295;-85
2022/05/24 06:26:50;;;;;;;3.40;1.50;;;;;;;15.14;100.00;95453.72;5041198;28;20201;-85
2022/05/24 06:29:17;;;;;;;1.97;1.50;;;;;;;15.19;100.00;95476.56;5042119;28;20209;-85
2022/05/24 06:31:46;;;;;;;3.30;1.43;;;;;;;15.18;100.00;95477.63;5050861;28;20210;-86
2022/05/24 06:34:13;;;;;;;2.63;1.40;;;;;;;15.17;100.00;95467.84;5042276;28;20290;-85
2022/05/24 06:36:42;;;;;;;2.00;1.50;;;;;;;15.25;100.00;95470.81;5046865;28;20213;-86
2022/05/24 06:39:09;;;;;;;2.73;1.53;;;;;;;15.27;100.00;95478.69;5062892;28;20193;-86
2022/05/24 06:41:37;;;;;;;1.77;1.40;;;;;;;15.28;100.00;95478.41;5045139;28;20292;-85
2022/05/24 06:44:04;;;;;;;1.90;1.43;;;;;;;15.37;100.00;95484.06;5045723;28;20237;-86
2022/05/24 06:46:32;;;;;;;2.90;1.40;;;;;;;15.47;100.00;95489.44;5046630;28;20209;-86
2022/05/24 06:48:59;;;;;;;2.83;1.50;;;;;;;15.34;100.00;95476.47;5040749;28;20247;-85
2022/05/24 06:51:26;;;;;;;3.03;1.60;;;;;;;15.44;100.00;95490.00;5045862;28;20212;-87
2022/05/24 06:53:55;;;;;;;1.70;1.60;;;;;;;15.43;100.00;95488.38;5046119;28;20209;-86
2022/05/24 06:56:22;;;;;;;1.40;1.30;;;;;;;15.49;100.00;95489.97;5029797;28;20253;-85
2022/05/24 07:02:24;;;;;;;1.57;1.30;;;;;;;15.45;100.00;95486.19;5031449;28;20202;-86
2022/05/24 07:04:24;;;;;;;3.70;1.30;;;;;;;15.33;100.00;95494.69;5031057;28;20218;-87
2022/05/24 07:06:51;;;;;;;2.60;1.30;;;;;;;15.29;100.00;95501.78;5039582;28;20279;-85
2022/05/24 07:09:20;;;;;;;2.00;1.50;;;;;;;15.29;100.00;95498.25;5029128;28;20202;-85
2022/05/24 07:11:48;;;;;;;1.57;1.43;;;;;;;15.28;100.00;95512.94;5037494;28;20217;-86
2022/05/24 07:14:15;;;;;;;2.80;1.50;;;;;;;15.23;100.00;95510.22;5036867;28;20213;-85
2022/05/24 07:16:42;;;;;;;1.80;1.30;;;;;;;15.23;100.00;95515.66;5049537;28;20233;-85
2022/05/24 07:19:10;;;;;;;2.33;1.50;;;;;;;15.30;100.00;95510.78;5026103;28;20214;-85
2022/05/24 07:21:37;;;;;;;2.80;1.50;;;;;;;15.24;100.00;95506.44;5026910;28;20230;-85
2022/05/24 07:24:04;;;;;;;2.90;1.50;;;;;;;15.26;100.00;95510.50;5032429;28;20280;-86
2022/05/24 07:26:33;;;;;;;7.40;1.63;;;;;;;15.22;100.00;95509.44;5035603;28;20256;-84
2022/05/24 07:29:00;;;;;;;2.27;1.73;;;;;;;15.20;100.00;95506.19;5048626;28;20213;-84
2022/05/24 07:31:27;;;;;;;2.20;1.63;;;;;;;15.21;100.00;95507.00;5055971;28;20207;-85
2022/05/24 07:33:54;;;;;;;1.50;1.40;;;;;;;15.19;100.00;95517.34;5033044;28;20210;-84
2022/05/24 07:36:22;;;;;;;5.47;1.83;;;;;;;15.25;100.00;95513.50;5032419;28;20194;-86
2022/05/24 07:38:49;;;;;;;2.77;2.00;;;;;;;15.18;100.00;95508.38;5044035;28;20233;-85
2022/05/24 07:46:46;;;;;;;2.23;1.40;;;;;;;15.19;100.00;95530.94;5030809;28;20214;-85
2022/05/24 07:49:13;;;;;;;2.90;1.80;;;;;;;15.24;100.00;95525.47;5031955;28;20306;-85
2022/05/24 07:51:41;;;;;;;2.13;1.60;;;;;;;15.15;100.00;95531.47;5031111;28;20293;-84
2022/05/24 07:54:08;;;;;;;1.80;1.70;;;;;;;15.15;100.00;95531.47;5029466;28;20252;-85
2022/05/24 07:56:36;;;;;;;3.10;1.70;;;;;;;15.17;100.00;95542.09;5030633;28;20274;-86
2022/05/24 07:59:08;;;;;;;2.20;1.67;;;;;;;15.08;100.00;95530.16;5031580;28;20375;-85
2022/05/24 08:01:36;;;;;;;1.80;1.57;;;;;;;15.13;100.00;95538.31;5027602;28;20218;-85
2022/05/24 08:04:03;;;;;;;3.87;1.67;;;;;;;15.19;100.00;95541.81;5020236;28;20257;-85
2022/05/24 08:06:30;;;;;;;2.17;1.30;;;;;;;15.17;100.00;95544.00;5029571;28;20297;-85
2022/05/24 08:08:57;;;;;;;3.13;1.57;;;;;;;15.15;100.00;95536.91;5031057;28;20317;-85
2022/05/24 08:11:25;;;;;;;3.40;1.70;;;;;;;15.28;100.00;95540.16;5028427;28;20210;-84
2022/05/24 08:13:52;;;;;;;3.27;1.77;;;;;;;15.29;100.00;95541.78;5027663;28;20222;-85
2022/05/24 08:16:21;;;;;;;3.37;1.73;;;;;;;15.23;100.00;95548.31;5030343;28;20363;-84
2022/05/24 08:18:48;;;;;;;4.80;2.30;;;;;;;15.21;100.00;95540.44;5029278;28;20210;-85
2022/05/24 08:21:15;;;;;;;5.00;2.00;;;;;;;15.18;100.00;95540.19;5045088;28;20214;-86
2022/05/24 08:23:43;;;;;;;5.67;2.20;;;;;;;15.19;100.00;95541.81;5032595;28;20241;-86
2022/05/24 08:26:10;;;;;;;3.00;2.53;;;;;;;15.21;100.00;95536.91;5016106;28;20249;-84
2022/05/24 08:28:38;;;;;;;1.77;1.60;;;;;;;15.28;100.00;95543.69;5022500;28;20256;-85
2022/05/24 08:31:08;;;;;;;2.83;1.50;;;;;;;15.23;100.00;95545.59;5033501;28;20209;-85
2022/05/24 08:33:37;;;;;;;2.30;1.73;;;;;;;15.25;100.00;95549.66;5029053;28;20209;-85
2022/05/24 08:36:05;;;;;;;2.40;1.47;;;;;;;15.27;100.00;95554.84;5034866;28;20238;-84
2022/05/24 08:38:32;;;;;;;2.03;1.80;;;;;;;15.23;100.00;95551.03;5030742;28;20207;-85
2022/05/24 08:41:03;;;;;;;2.50;2.03;;;;;;;15.26;100.00;95558.63;5029734;28;20209;-85
2022/05/24 08:49:57;;;;;;;2.40;1.80;;;;;;;15.00;100.00;95571.50;5026915;28;20211;-86
2022/05/24 08:52:28;;;;;;;5.47;3.97;;;;;;;14.96;100.00;95576.72;5028326;28;20222;-84
2022/05/24 08:54:59;;;;;;;2.33;1.83;;;;;;;14.98;100.00;95579.94;5017726;28;20242;-86
2022/05/24 08:57:40;;;;;;;2.67;1.50;;;;;;;14.88;100.00;95596.31;5012137;28;20215;-84
2022/05/24 09:00:11;;;;;;;4.77;3.20;;;;;;;14.82;100.00;95591.13;5032662;28;20329;-84
2022/05/24 09:02:43;;;;;;;4.87;1.87;;;;;;;14.84;100.00;95600.66;5040546;28;20240;-84
2022/05/24 09:05:23;;;;;;;2.53;1.60;;;;;;;14.75;100.00;95618.59;5034866;28;20219;-84
2022/05/24 09:08:11;;;;;;;2.40;1.50;;;;;;;14.63;100.00;95609.94;5018119;28;20203;-83
2022/05/24 09:10:46;;;;;;;1.50;1.10;;;;;;;14.58;100.00;95612.63;5026545;28;20210;-85
2022/05/24 09:13:28;;;;;;;1.73;1.17;;;;;;;14.33;100.00;95614.25;5040520;28;20293;-84
2022/05/24 09:16:01;;;;;;;0.93;0.90;;;;;;;14.23;100.00;95613.41;5026108;28;20222;-84
2022/05/24 09:18:37;;;;;;;0.80;0.80;;;;;;;14.11;100.00;95615.59;5027518;28;20215;-84
2022/05/24 09:21:06;;;;;;;0.80;0.80;;;;;;;14.07;100.00;95612.59;5041745;28;20213;-84
2022/05/24 09:23:39;;;;;;;2.80;0.80;;;;;;;14.16;100.00;95632.69;5025657;28;20199;-85
2022/05/24 09:26:10;;;;;;;4.63;0.90;;;;;;;14.14;100.00;95629.44;5035581;28;20257;-85
2022/05/24 09:28:47;;;;;;;0.80;0.80;;;;;;;14.11;100.00;95624.56;5037741;28;20204;-84
2022/05/24 09:31:21;;;;;;;1.37;0.83;;;;;;;14.13;100.00;95635.94;5026134;28;20261;-84
2022/05/24 09:33:55;;;;;;;1.93;0.87;;;;;;;14.17;100.00;95630.81;5030056;28;20213;-85
2022/05/24 09:36:52;;;;;;;0.73;0.73;;;;;;;14.05;100.00;95638.38;5024542;28;20207;-84
2022/05/24 09:39:26;;;;;;;3.23;0.80;;;;;;;14.04;100.00;95648.41;5039968;28;20214;-85
2022/05/24 09:41:55;;;;;;;6.23;0.70;;;;;;;13.97;100.00;95651.41;5034414;28;20214;-84
2022/05/24 09:44:23;;;;;;;0.70;0.70;;;;;;;14.00;100.00;95650.88;5008818;28;20285;-85
2022/05/24 09:46:51;;;;;;;1.10;0.77;;;;;;;13.99;100.00;95654.66;5028327;28;20286;-84
2022/05/24 09:49:24;;;;;;;1.70;0.87;;;;;;;14.05;100.00;95660.91;5012365;28;20199;-84
2022/05/24 09:51:56;;;;;;;0.60;0.60;;;;;;;13.98;100.00;95663.06;5026709;28;20302;-86
2022/05/24 09:54:26;;;;;;;1.00;0.80;;;;;;;13.96;100.00;95665.22;5028400;28;20207;-85
2022/05/24 09:57:06;;;;;;;0.70;0.70;;;;;;;13.90;100.00;95677.97;5026130;28;20237;-85
2022/05/24 09:59:34;;;;;;;0.60;0.60;;;;;;;13.79;100.00;95675.50;5019632;28;20216;-85
2022/05/24 10:02:02;;;;;;;0.60;0.60;;;;;;;13.80;100.00;95672.53;5026278;28;20217;-85
2022/05/24 10:04:36;;;;;;;0.53;0.53;;;;;;;13.82;100.00;95672.25;5039467;28;20219;-86
2022/05/24 10:07:10;;;;;;;1.27;0.60;;;;;;;13.86;100.00;95678.78;5020553;28;20214;-85
2022/05/24 10:09:48;;;;;;;1.63;0.70;;;;;;;13.85;100.00;95675.28;5017568;28;20199;-84
2022/05/24 10:12:27;;;;;;;2.50;0.70;;;;;;;13.98;100.00;95679.34;5024974;28;20261;-85
2022/05/24 10:15:11;;;;;;;0.70;0.70;;;;;;;13.98;100.00;95684.78;5024135;28;20202;-84
2022/05/24 10:17:48;;;;;;;1.10;0.80;;;;;;;14.03;100.00;95692.97;5038037;28;20214;-85
2022/05/24 10:20:24;;;;;;;0.60;0.60;;;;;;;13.92;100.00;95685.88;5035211;28;20210;-85
2022/05/24 10:23:00;;;;;;;0.80;0.60;;;;;;;13.90;100.00;95682.59;5036698;28;20234;-85
2022/05/24 10:25:36;;;;;;;0.73;0.60;;;;;;;13.98;100.00;95703.78;5024295;28;20227;-84
2022/05/24 10:28:19;;;;;;;0.77;0.77;;;;;;;14.01;100.00;95692.41;5025550;28;20203;-85
2022/05/24 10:31:00;;;;;;;2.80;0.70;;;;;;;13.85;100.00;95685.31;5036482;28;20214;-85
2022/05/24 10:39:30;;;;;;;0.80;0.80;;;;;;;13.93;100.00;95711.91;5044532;28;20198;-84
2022/05/24 10:42:08;;;;;;;0.53;0.53;;;;;;;13.87;100.00;95712.97;5045478;28;20229;-85
2022/05/24 10:44:40;;;;;;;0.70;0.70;;;;;;;13.92;100.00;95702.97;5029833;28;20242;-84
2022/05/24 10:47:09;;;;;;;0.70;0.70;;;;;;;14.01;100.00;95698.66;5019813;28;20210;-85
2022/05/24 10:49:46;;;;;;;0.60;0.60;;;;;;;14.00;100.00;95702.44;5028683;28;20214;-84
2022/05/24 10:52:24;;;;;;;0.60;0.60;;;;;;;13.98;100.00;95695.63;5045467;28;20203;-86
2022/05/24 10:54:59;;;;;;;0.53;0.53;;;;;;;14.06;100.00;95702.44;5047185;28;20268;-85
2022/05/24 10:57:31;;;;;;;0.60;0.60;;;;;;;14.12;100.00;95702.19;5028196;28;20256;-84
2022/05/24 11:00:05;;;;;;;0.60;0.60;;;;;;;14.21;100.00;95695.16;5028841;28;20210;-85
2022/05/24 11:02:38;;;;;;;0.70;0.70;;;;;;;14.20;100.00;95709.00;5030806;28;20297;-85
2022/05/24 11:05:14;;;;;;;0.50;0.50;;;;;;;14.13;100.00;95703.00;5027106;28;20227;-84
2022/05/24 11:07:41;;;;;;;1.57;0.87;;;;;;;14.16;100.00;95700.56;5028927;28;20205;-85
2022/05/24 11:10:20;;;;;;;0.60;0.60;;;;;;;14.18;100.00;95713.88;5019294;28;20199;-84
2022/05/24 11:12:50;;;;;;;1.93;0.70;;;;;;;14.16;100.00;95702.47;5029477;28;20214;-85
2022/05/24 11:15:28;;;;;;;0.60;0.60;;;;;;;14.16;100.00;95707.91;5025269;28;20253;-85
2022/05/24 11:17:55;;;;;;;0.67;0.60;;;;;;;14.13;100.00;95709.25;5022517;28;20221;-84
2022/05/24 11:20:28;;;;;;;2.70;1.30;;;;;;;14.19;100.00;95707.38;5027122;28;20217;-84
2022/05/24 11:23:10;;;;;;;1.33;1.07;;;;;;;14.20;100.00;95700.88;5028836;28;20389;-85
2022/05/24 11:25:45;;;;;;;0.70;0.70;;;;;;;14.32;100.00;95712.28;5026924;28;20222;-87
2022/05/24 11:28:22;;;;;;;0.60;0.60;;;;;;;14.31;100.00;95699.78;5041755;28;20298;-85
2022/05/24 11:30:51;;;;;;;1.93;0.80;;;;;;;14.35;100.00;95706.31;5023872;28;20249;-84
2022/05/24 11:33:33;;;;;;;0.97;0.70;;;;;;;14.43;100.00;95705.00;5026559;28;20225;-85
2022/05/24 11:36:23;;;;;;;1.47;0.80;;;;;;;14.57;100.00;95701.47;5046005;28;20213;-84
2022/05/24 11:38:51;;;;;;;0.70;0.70;;;;;;;14.65;100.00;95695.50;5025621;28;20207;-85
2022/05/24 11:41:28;;;;;;;0.97;0.70;;;;;;;14.56;100.00;95690.88;5021951;28;20210;-85
2022/05/24 11:44:08;;;;;;;1.10;0.77;;;;;;;14.52;100.00;95696.03;5031482;28;20233;-85
2022/05/24 11:46:44;;;;;;;0.60;0.60;;;;;;;14.52;100.00;95695.22;5040790;28;20276;-84
2022/05/24 11:49:28;;;;;;;5.27;0.70;;;;;;;14.50;100.00;95692.78;5041476;28;20194;-84
2022/05/24 11:51:57;;;;;;;0.93;0.80;;;;;;;14.43;100.00;95694.13;5028800;28;20202;-84
2022/05/24 11:54:56;;;;;;;0.50;0.50;;;;;;;14.47;100.00;95692.50;5030062;28;20320;-85
2022/05/24 11:57:40;;;;;;;1.50;0.77;;;;;;;14.56;100.00;95691.69;5042161;28;20216;-84
2022/05/24 12:00:09;;;;;;;0.70;0.67;;;;;;;14.64;100.00;95688.44;5032304;28;20217;-84
2022/05/24 12:08:26;;;;;;;0.60;0.60;;;;;;;14.87;100.00;95703.38;5031287;28;20210;-85
2022/05/24 12:11:07;;;;;;;1.37;0.57;;;;;;;14.74;100.00;95699.31;5046713;28;20206;-85
2022/05/24 12:13:51;;;;;;;2.77;0.73;;;;;;;14.77;100.00;95700.66;5026378;28;20214;-85
2022/05/24 12:17:03;;;;;;;4.77;1.10;;;;;;;14.74;100.00;95693.06;5048775;28;20228;-84
2022/05/24 12:19:49;;;;;;;0.60;0.60;;;;;;;14.90;100.00;95682.97;4968574;28;20244;-83
2022/05/24 12:22:18;;;;;;;1.13;0.80;;;;;;;15.37;100.00;95696.22;5030303;28;20210;-85
2022/05/24 12:24:51;;;;;;;3.30;2.50;;;;;;;15.72;100.00;95693.44;5031361;28;20229;-84
2022/05/24 12:27:47;;;;;;;0.97;0.83;;;;;;;15.78;100.00;95695.03;5035050;28;20206;-84
2022/05/24 12:30:45;;;;;;;1.20;0.80;;;;;;;15.62;100.00;95698.91;5020820;28;20218;-85
2022/05/24 12:33:34;;;;;;;0.70;0.70;;;;;;;15.58;100.00;95697.00;5023668;28;20234;-84